sensor_id;sensor_type;location;lat;lon;timestamp;P1;durP1;ratioP1;P2;durP2;ratioP2
74495;SDS011;62979;55.720;37.606;2023-06-22T00:00:56;11.95;;;5.15;;
74495;SDS011;62979;55.720;37.606;2023-06-22T00:03:23;15.48;;;5.28;;
74495;SDS011;62979;55.720;37.606;2023-06-22T00:05:53;10.10;;;4.20;;
74495;SDS011;62979;55.720;37.606;2023-06-22T00:08:21;10.15;;;4.35;;
74495;SDS011;62979;55.720;37.606;2023-06-22T00:10:48;10.57;;;4.57;;
74495;SDS011;62979;55.720;37.606;2023-06-22T00:13:15;11.25;;;3.97;;
74495;SDS011;62979;55.720;37.606;2023-06-22T00:15:43;10.57;;;4.43;;
74495;SDS011;62979;55.720;37.606;2023-06-22T00:18:11;14.20;;;5.38;;
74495;SDS011;62979;55.720;37.606;2023-06-22T00:20:38;11.73;;;5.13;;
74495;SDS011;62979;55.720;37.606;2023-06-22T00:23:07;12.35;;;4.88;;
74495;SDS011;62979;55.720;37.606;2023-06-22T00:25:34;11.10;;;5.13;;
74495;SDS011;62979;55.720;37.606;2023-06-22T00:28:01;17.73;;;5.07;;
74495;SDS011;62979;55.720;37.606;2023-06-22T00:32:57;9.63;;;5.00;;
74495;SDS011;62979;55.720;37.606;2023-06-22T00:35:24;10.75;;;4.80;;
74495;SDS011;62979;55.720;37.606;2023-06-22T00:37:54;12.85;;;5.13;;
74495;SDS011;62979;55.720;37.606;2023-06-22T00:40:27;10.82;;;5.28;;
74495;SDS011;62979;55.720;37.606;2023-06-22T00:42:55;16.23;;;5.40;;
74495;SDS011;62979;55.720;37.606;2023-06-22T00:45:22;7.28;;;4.32;;
74495;SDS011;62979;55.720;37.606;2023-06-22T00:47:49;11.95;;;5.47;;
74495;SDS011;62979;55.720;37.606;2023-06-22T00:50:19;12.57;;;4.97;;
74495;SDS011;62979;55.720;37.606;2023-06-22T00:52:49;10.68;;;5.20;;
74495;SDS011;62979;55.720;37.606;2023-06-22T00:55:19;15.88;;;5.28;;
74495;SDS011;62979;55.720;37.606;2023-06-22T00:57:49;14.48;;;5.07;;
74495;SDS011;62979;55.720;37.606;2023-06-22T01:00:21;10.35;;;5.32;;
74495;SDS011;62979;55.720;37.606;2023-06-22T01:02:50;11.38;;;5.43;;
74495;SDS011;62979;55.720;37.606;2023-06-22T01:05:19;17.17;;;5.75;;
74495;SDS011;62979;55.720;37.606;2023-06-22T01:07:51;12.85;;;4.97;;
74495;SDS011;62979;55.720;37.606;2023-06-22T01:10:34;10.65;;;5.15;;
74495;SDS011;62979;55.720;37.606;2023-06-22T01:13:14;11.40;;;5.45;;
74495;SDS011;62979;55.720;37.606;2023-06-22T01:15:53;8.25;;;4.78;;
74495;SDS011;62979;55.720;37.606;2023-06-22T01:18:28;11.60;;;4.85;;
74495;SDS011;62979;55.720;37.606;2023-06-22T01:21:01;13.80;;;5.22;;
74495;SDS011;62979;55.720;37.606;2023-06-22T01:23:36;15.27;;;5.38;;
74495;SDS011;62979;55.720;37.606;2023-06-22T01:26:22;15.43;;;5.75;;
74495;SDS011;62979;55.720;37.606;2023-06-22T01:29:03;11.18;;;5.45;;
74495;SDS011;62979;55.720;37.606;2023-06-22T01:31:33;12.10;;;4.75;;
74495;SDS011;62979;55.720;37.606;2023-06-22T01:34:02;13.13;;;5.10;;
74495;SDS011;62979;55.720;37.606;2023-06-22T01:36:33;8.70;;;4.78;;
74495;SDS011;62979;55.720;37.606;2023-06-22T01:39:02;9.90;;;4.78;;
74495;SDS011;62979;55.720;37.606;2023-06-22T01:41:34;12.02;;;4.40;;
74495;SDS011;62979;55.720;37.606;2023-06-22T01:44:05;8.30;;;3.88;;
74495;SDS011;62979;55.720;37.606;2023-06-22T01:46:34;10.48;;;4.13;;
74495;SDS011;62979;55.720;37.606;2023-06-22T01:49:03;12.35;;;4.20;;
74495;SDS011;62979;55.720;37.606;2023-06-22T01:51:32;7.15;;;4.07;;
74495;SDS011;62979;55.720;37.606;2023-06-22T01:56:27;8.20;;;4.07;;
74495;SDS011;62979;55.720;37.606;2023-06-22T01:58:55;8.90;;;4.00;;
74495;SDS011;62979;55.720;37.606;2023-06-22T02:01:33;15.35;;;4.97;;
74495;SDS011;62979;55.720;37.606;2023-06-22T02:04:10;7.32;;;3.90;;
74495;SDS011;62979;55.720;37.606;2023-06-22T02:06:46;11.68;;;4.15;;
74495;SDS011;62979;55.720;37.606;2023-06-22T02:09:17;10.35;;;4.00;;
74495;SDS011;62979;55.720;37.606;2023-06-22T02:11:48;8.68;;;4.30;;
74495;SDS011;62979;55.720;37.606;2023-06-22T02:14:20;10.63;;;4.38;;
74495;SDS011;62979;55.720;37.606;2023-06-22T02:16:50;9.77;;;4.00;;
74495;SDS011;62979;55.720;37.606;2023-06-22T02:19:22;6.55;;;3.42;;
74495;SDS011;62979;55.720;37.606;2023-06-22T02:21:50;8.50;;;4.50;;
74495;SDS011;62979;55.720;37.606;2023-06-22T02:24:16;8.00;;;4.45;;
74495;SDS011;62979;55.720;37.606;2023-06-22T02:26:43;9.77;;;4.70;;
74495;SDS011;62979;55.720;37.606;2023-06-22T02:29:10;10.52;;;3.17;;
74495;SDS011;62979;55.720;37.606;2023-06-22T02:31:38;10.77;;;3.97;;
74495;SDS011;62979;55.720;37.606;2023-06-22T02:34:06;18.90;;;5.25;;
74495;SDS011;62979;55.720;37.606;2023-06-22T02:36:33;6.45;;;3.40;;
74495;SDS011;62979;55.720;37.606;2023-06-22T02:39:00;7.63;;;2.97;;
74495;SDS011;62979;55.720;37.606;2023-06-22T02:41:28;9.02;;;3.70;;
74495;SDS011;62979;55.720;37.606;2023-06-22T02:43:55;7.65;;;3.92;;
74495;SDS011;62979;55.720;37.606;2023-06-22T02:46:22;6.63;;;3.38;;
74495;SDS011;62979;55.720;37.606;2023-06-22T02:48:49;7.07;;;3.40;;
74495;SDS011;62979;55.720;37.606;2023-06-22T02:51:17;13.43;;;4.03;;
74495;SDS011;62979;55.720;37.606;2023-06-22T02:53:44;6.65;;;3.55;;
74495;SDS011;62979;55.720;37.606;2023-06-22T02:58:39;5.28;;;3.13;;
74495;SDS011;62979;55.720;37.606;2023-06-22T03:01:05;4.85;;;2.90;;
74495;SDS011;62979;55.720;37.606;2023-06-22T03:03:32;5.70;;;3.20;;
74495;SDS011;62979;55.720;37.606;2023-06-22T03:06:00;5.22;;;3.60;;
74495;SDS011;62979;55.720;37.606;2023-06-22T03:08:28;5.80;;;2.65;;
74495;SDS011;62979;55.720;37.606;2023-06-22T03:10:55;6.75;;;2.85;;
74495;SDS011;62979;55.720;37.606;2023-06-22T03:13:22;3.92;;;2.60;;
74495;SDS011;62979;55.720;37.606;2023-06-22T03:15:50;8.18;;;3.30;;
74495;SDS011;62979;55.720;37.606;2023-06-22T03:18:17;5.45;;;3.28;;
74495;SDS011;62979;55.720;37.606;2023-06-22T03:20:44;4.25;;;2.40;;
74495;SDS011;62979;55.720;37.606;2023-06-22T03:23:11;6.93;;;3.35;;
74495;SDS011;62979;55.720;37.606;2023-06-22T03:25:40;5.68;;;3.25;;
74495;SDS011;62979;55.720;37.606;2023-06-22T03:28:09;5.43;;;2.92;;
74495;SDS011;62979;55.720;37.606;2023-06-22T03:30:36;10.82;;;3.67;;
74495;SDS011;62979;55.720;37.606;2023-06-22T03:33:03;3.60;;;2.80;;
74495;SDS011;62979;55.720;37.606;2023-06-22T03:35:30;6.40;;;3.03;;
74495;SDS011;62979;55.720;37.606;2023-06-22T03:37:57;5.93;;;3.38;;
74495;SDS011;62979;55.720;37.606;2023-06-22T03:40:24;6.35;;;3.53;;
74495;SDS011;62979;55.720;37.606;2023-06-22T03:42:52;5.72;;;2.50;;
74495;SDS011;62979;55.720;37.606;2023-06-22T03:45:19;8.55;;;2.67;;
74495;SDS011;62979;55.720;37.606;2023-06-22T03:47:46;8.18;;;2.92;;
74495;SDS011;62979;55.720;37.606;2023-06-22T03:50:13;4.57;;;2.90;;
74495;SDS011;62979;55.720;37.606;2023-06-22T03:52:40;7.57;;;2.72;;
74495;SDS011;62979;55.720;37.606;2023-06-22T03:55:07;5.82;;;2.58;;
74495;SDS011;62979;55.720;37.606;2023-06-22T03:57:36;5.30;;;2.78;;
74495;SDS011;62979;55.720;37.606;2023-06-22T04:00:05;4.32;;;2.50;;
74495;SDS011;62979;55.720;37.606;2023-06-22T04:02:35;5.10;;;2.92;;
74495;SDS011;62979;55.720;37.606;2023-06-22T04:05:02;4.35;;;2.45;;
74495;SDS011;62979;55.720;37.606;2023-06-22T04:07:29;3.50;;;2.28;;
74495;SDS011;62979;55.720;37.606;2023-06-22T04:09:56;4.60;;;2.50;;
74495;SDS011;62979;55.720;37.606;2023-06-22T04:12:23;6.78;;;2.60;;
74495;SDS011;62979;55.720;37.606;2023-06-22T04:14:50;5.18;;;2.65;;
74495;SDS011;62979;55.720;37.606;2023-06-22T04:17:18;4.13;;;2.45;;
74495;SDS011;62979;55.720;37.606;2023-06-22T04:19:45;3.03;;;2.72;;
74495;SDS011;62979;55.720;37.606;2023-06-22T04:22:11;2.78;;;2.05;;
74495;SDS011;62979;55.720;37.606;2023-06-22T04:24:38;3.72;;;2.53;;
74495;SDS011;62979;55.720;37.606;2023-06-22T04:27:05;3.80;;;2.40;;
74495;SDS011;62979;55.720;37.606;2023-06-22T04:29:32;5.28;;;2.33;;
74495;SDS011;62979;55.720;37.606;2023-06-22T04:31:59;7.05;;;2.55;;
74495;SDS011;62979;55.720;37.606;2023-06-22T04:34:29;4.95;;;2.15;;
74495;SDS011;62979;55.720;37.606;2023-06-22T04:36:56;5.07;;;2.25;;
74495;SDS011;62979;55.720;37.606;2023-06-22T04:39:24;2.92;;;2.20;;
74495;SDS011;62979;55.720;37.606;2023-06-22T04:41:52;4.43;;;2.10;;
74495;SDS011;62979;55.720;37.606;2023-06-22T04:44:20;6.20;;;2.30;;
74495;SDS011;62979;55.720;37.606;2023-06-22T04:46:49;3.63;;;1.90;;
74495;SDS011;62979;55.720;37.606;2023-06-22T04:49:19;8.63;;;3.10;;
74495;SDS011;62979;55.720;37.606;2023-06-22T04:51:48;4.68;;;2.40;;
74495;SDS011;62979;55.720;37.606;2023-06-22T04:54:16;4.38;;;2.42;;
74495;SDS011;62979;55.720;37.606;2023-06-22T04:56:43;4.20;;;2.10;;
74495;SDS011;62979;55.720;37.606;2023-06-22T04:59:11;4.40;;;2.40;;
74495;SDS011;62979;55.720;37.606;2023-06-22T05:01:39;5.50;;;2.17;;
74495;SDS011;62979;55.720;37.606;2023-06-22T05:04:06;3.35;;;2.35;;
74495;SDS011;62979;55.720;37.606;2023-06-22T05:06:34;3.80;;;2.25;;
74495;SDS011;62979;55.720;37.606;2023-06-22T05:09:02;2.88;;;2.20;;
74495;SDS011;62979;55.720;37.606;2023-06-22T05:11:30;4.57;;;2.28;;
74495;SDS011;62979;55.720;37.606;2023-06-22T05:13:57;4.20;;;2.38;;
74495;SDS011;62979;55.720;37.606;2023-06-22T05:16:24;4.45;;;2.92;;
74495;SDS011;62979;55.720;37.606;2023-06-22T05:18:51;5.20;;;2.97;;
74495;SDS011;62979;55.720;37.606;2023-06-22T05:21:21;5.38;;;2.30;;
74495;SDS011;62979;55.720;37.606;2023-06-22T05:23:49;4.30;;;2.60;;
74495;SDS011;62979;55.720;37.606;2023-06-22T05:26:18;5.60;;;2.78;;
74495;SDS011;62979;55.720;37.606;2023-06-22T05:28:46;6.28;;;2.45;;
74495;SDS011;62979;55.720;37.606;2023-06-22T05:31:14;4.55;;;2.65;;
74495;SDS011;62979;55.720;37.606;2023-06-22T05:33:42;4.53;;;2.33;;
74495;SDS011;62979;55.720;37.606;2023-06-22T05:36:10;5.10;;;2.85;;
74495;SDS011;62979;55.720;37.606;2023-06-22T05:38:37;4.70;;;2.95;;
74495;SDS011;62979;55.720;37.606;2023-06-22T05:43:33;6.07;;;2.78;;
74495;SDS011;62979;55.720;37.606;2023-06-22T05:46:01;4.53;;;2.72;;
74495;SDS011;62979;55.720;37.606;2023-06-22T05:48:28;2.78;;;1.90;;
74495;SDS011;62979;55.720;37.606;2023-06-22T05:50:55;3.38;;;2.20;;
74495;SDS011;62979;55.720;37.606;2023-06-22T05:53:23;5.22;;;2.30;;
74495;SDS011;62979;55.720;37.606;2023-06-22T05:55:50;2.78;;;2.17;;
74495;SDS011;62979;55.720;37.606;2023-06-22T05:58:17;5.18;;;2.55;;
74495;SDS011;62979;55.720;37.606;2023-06-22T06:00:45;4.90;;;2.17;;
74495;SDS011;62979;55.720;37.606;2023-06-22T06:03:13;4.15;;;2.30;;
74495;SDS011;62979;55.720;37.606;2023-06-22T06:05:42;4.32;;;2.38;;
74495;SDS011;62979;55.720;37.606;2023-06-22T06:08:10;4.03;;;2.35;;
74495;SDS011;62979;55.720;37.606;2023-06-22T06:10:37;5.05;;;2.75;;
74495;SDS011;62979;55.720;37.606;2023-06-22T06:13:04;2.53;;;2.05;;
74495;SDS011;62979;55.720;37.606;2023-06-22T06:15:31;2.33;;;2.13;;
74495;SDS011;62979;55.720;37.606;2023-06-22T06:18:01;3.10;;;2.80;;
74495;SDS011;62979;55.720;37.606;2023-06-22T06:20:30;3.67;;;1.98;;
74495;SDS011;62979;55.720;37.606;2023-06-22T06:22:58;2.88;;;2.20;;
74495;SDS011;62979;55.720;37.606;2023-06-22T06:25:25;4.53;;;2.20;;
74495;SDS011;62979;55.720;37.606;2023-06-22T06:27:52;3.60;;;2.17;;
74495;SDS011;62979;55.720;37.606;2023-06-22T06:30:20;4.93;;;2.53;;
74495;SDS011;62979;55.720;37.606;2023-06-22T06:35:16;4.85;;;2.47;;
74495;SDS011;62979;55.720;37.606;2023-06-22T06:37:44;4.72;;;2.50;;
74495;SDS011;62979;55.720;37.606;2023-06-22T06:40:14;4.75;;;2.00;;
74495;SDS011;62979;55.720;37.606;2023-06-22T06:42:44;3.78;;;2.88;;
74495;SDS011;62979;55.720;37.606;2023-06-22T06:45:14;8.05;;;3.17;;
74495;SDS011;62979;55.720;37.606;2023-06-22T06:47:43;7.22;;;2.97;;
74495;SDS011;62979;55.720;37.606;2023-06-22T06:50:10;7.25;;;2.80;;
74495;SDS011;62979;55.720;37.606;2023-06-22T06:52:39;4.72;;;2.47;;
74495;SDS011;62979;55.720;37.606;2023-06-22T06:55:07;4.00;;;2.65;;
74495;SDS011;62979;55.720;37.606;2023-06-22T06:57:37;5.82;;;3.53;;
74495;SDS011;62979;55.720;37.606;2023-06-22T07:00:05;6.32;;;2.92;;
74495;SDS011;62979;55.720;37.606;2023-06-22T07:02:37;5.65;;;2.58;;
74495;SDS011;62979;55.720;37.606;2023-06-22T07:05:06;10.52;;;8.20;;
74495;SDS011;62979;55.720;37.606;2023-06-22T07:07:34;7.47;;;2.97;;
74495;SDS011;62979;55.720;37.606;2023-06-22T07:10:03;5.00;;;2.83;;
74495;SDS011;62979;55.720;37.606;2023-06-22T07:12:32;6.40;;;2.58;;
74495;SDS011;62979;55.720;37.606;2023-06-22T07:15:01;7.82;;;4.93;;
74495;SDS011;62979;55.720;37.606;2023-06-22T07:17:30;6.28;;;5.07;;
74495;SDS011;62979;55.720;37.606;2023-06-22T07:19:57;2.95;;;2.25;;
74495;SDS011;62979;55.720;37.606;2023-06-22T07:22:24;3.97;;;2.42;;
74495;SDS011;62979;55.720;37.606;2023-06-22T07:24:51;3.35;;;2.25;;
74495;SDS011;62979;55.720;37.606;2023-06-22T07:27:19;4.13;;;2.92;;
74495;SDS011;62979;55.720;37.606;2023-06-22T07:29:46;3.97;;;2.25;;
74495;SDS011;62979;55.720;37.606;2023-06-22T07:32:13;3.47;;;2.72;;
74495;SDS011;62979;55.720;37.606;2023-06-22T07:34:40;4.07;;;2.25;;
74495;SDS011;62979;55.720;37.606;2023-06-22T07:37:08;3.55;;;2.95;;
74495;SDS011;62979;55.720;37.606;2023-06-22T07:39:35;2.40;;;2.05;;
74495;SDS011;62979;55.720;37.606;2023-06-22T07:44:31;6.82;;;2.88;;
74495;SDS011;62979;55.720;37.606;2023-06-22T07:46:58;4.13;;;2.67;;
74495;SDS011;62979;55.720;37.606;2023-06-22T07:49:25;3.40;;;2.67;;
74495;SDS011;62979;55.720;37.606;2023-06-22T07:51:51;6.70;;;2.50;;
74495;SDS011;62979;55.720;37.606;2023-06-22T07:54:18;4.38;;;2.95;;
74495;SDS011;62979;55.720;37.606;2023-06-22T07:56:46;3.47;;;2.15;;
74495;SDS011;62979;55.720;37.606;2023-06-22T07:59:13;4.47;;;2.20;;
74495;SDS011;62979;55.720;37.606;2023-06-22T08:01:41;6.72;;;2.40;;
74495;SDS011;62979;55.720;37.606;2023-06-22T08:04:08;6.40;;;3.00;;
74495;SDS011;62979;55.720;37.606;2023-06-22T08:06:35;6.15;;;3.70;;
74495;SDS011;62979;55.720;37.606;2023-06-22T08:09:02;4.07;;;2.50;;
74495;SDS011;62979;55.720;37.606;2023-06-22T08:11:29;3.60;;;3.13;;
74495;SDS011;62979;55.720;37.606;2023-06-22T08:13:57;5.43;;;2.83;;
74495;SDS011;62979;55.720;37.606;2023-06-22T08:16:24;3.63;;;2.90;;
74495;SDS011;62979;55.720;37.606;2023-06-22T08:18:53;6.32;;;3.67;;
74495;SDS011;62979;55.720;37.606;2023-06-22T08:21:20;5.93;;;2.83;;
74495;SDS011;62979;55.720;37.606;2023-06-22T08:23:48;5.68;;;2.95;;
74495;SDS011;62979;55.720;37.606;2023-06-22T08:26:15;5.97;;;2.65;;
74495;SDS011;62979;55.720;37.606;2023-06-22T08:28:42;7.63;;;3.45;;
74495;SDS011;62979;55.720;37.606;2023-06-22T08:31:09;4.90;;;3.08;;
74495;SDS011;62979;55.720;37.606;2023-06-22T08:33:37;2.97;;;2.67;;
74495;SDS011;62979;55.720;37.606;2023-06-22T08:36:05;7.93;;;5.55;;
74495;SDS011;62979;55.720;37.606;2023-06-22T08:38:33;6.55;;;3.08;;
74495;SDS011;62979;55.720;37.606;2023-06-22T08:41:00;5.93;;;3.63;;
74495;SDS011;62979;55.720;37.606;2023-06-22T08:43:27;5.60;;;3.38;;
74495;SDS011;62979;55.720;37.606;2023-06-22T08:45:54;2.97;;;2.55;;
74495;SDS011;62979;55.720;37.606;2023-06-22T08:48:22;4.90;;;2.28;;
74495;SDS011;62979;55.720;37.606;2023-06-22T08:50:48;5.50;;;2.88;;
74495;SDS011;62979;55.720;37.606;2023-06-22T08:53:17;3.80;;;2.65;;
74495;SDS011;62979;55.720;37.606;2023-06-22T08:55:44;7.50;;;3.08;;
74495;SDS011;62979;55.720;37.606;2023-06-22T09:00:37;4.82;;;2.55;;
74495;SDS011;62979;55.720;37.606;2023-06-22T09:03:04;5.85;;;3.47;;
74495;SDS011;62979;55.720;37.606;2023-06-22T09:05:31;3.08;;;1.88;;
74495;SDS011;62979;55.720;37.606;2023-06-22T09:07:58;5.68;;;2.33;;
74495;SDS011;62979;55.720;37.606;2023-06-22T09:10:26;3.63;;;2.92;;
74495;SDS011;62979;55.720;37.606;2023-06-22T09:12:53;3.60;;;2.90;;
74495;SDS011;62979;55.720;37.606;2023-06-22T09:15:20;3.90;;;2.80;;
74495;SDS011;62979;55.720;37.606;2023-06-22T09:17:47;3.78;;;2.80;;
74495;SDS011;62979;55.720;37.606;2023-06-22T09:20:14;4.88;;;3.25;;
74495;SDS011;62979;55.720;37.606;2023-06-22T09:22:41;3.50;;;2.78;;
74495;SDS011;62979;55.720;37.606;2023-06-22T09:25:08;5.25;;;2.83;;
74495;SDS011;62979;55.720;37.606;2023-06-22T09:27:37;3.83;;;3.05;;
74495;SDS011;62979;55.720;37.606;2023-06-22T09:30:04;3.47;;;3.17;;
74495;SDS011;62979;55.720;37.606;2023-06-22T09:32:33;3.83;;;2.35;;
74495;SDS011;62979;55.720;37.606;2023-06-22T09:35:01;2.30;;;2.10;;
74495;SDS011;62979;55.720;37.606;2023-06-22T09:37:32;5.47;;;2.35;;
74495;SDS011;62979;55.720;37.606;2023-06-22T09:39:58;3.45;;;2.45;;
74495;SDS011;62979;55.720;37.606;2023-06-22T09:42:25;2.97;;;2.30;;
74495;SDS011;62979;55.720;37.606;2023-06-22T09:44:53;2.92;;;2.22;;
74495;SDS011;62979;55.720;37.606;2023-06-22T09:47:20;3.42;;;2.53;;
74495;SDS011;62979;55.720;37.606;2023-06-22T09:49:47;5.60;;;3.22;;
74495;SDS011;62979;55.720;37.606;2023-06-22T09:52:14;4.55;;;2.70;;
74495;SDS011;62979;55.720;37.606;2023-06-22T09:54:42;3.78;;;2.80;;
74495;SDS011;62979;55.720;37.606;2023-06-22T09:57:08;3.13;;;2.75;;
74495;SDS011;62979;55.720;37.606;2023-06-22T09:59:35;3.20;;;2.88;;
74495;SDS011;62979;55.720;37.606;2023-06-22T10:02:04;6.43;;;3.13;;
74495;SDS011;62979;55.720;37.606;2023-06-22T10:04:32;4.30;;;3.45;;
74495;SDS011;62979;55.720;37.606;2023-06-22T10:06:59;3.75;;;3.25;;
74495;SDS011;62979;55.720;37.606;2023-06-22T10:09:26;4.57;;;3.53;;
74495;SDS011;62979;55.720;37.606;2023-06-22T10:14:20;6.22;;;3.28;;
74495;SDS011;62979;55.720;37.606;2023-06-22T10:16:47;3.42;;;3.13;;
74495;SDS011;62979;55.720;37.606;2023-06-22T10:19:16;5.72;;;2.97;;
74495;SDS011;62979;55.720;37.606;2023-06-22T10:21:43;3.83;;;3.42;;
74495;SDS011;62979;55.720;37.606;2023-06-22T10:24:10;3.90;;;3.60;;
74495;SDS011;62979;55.720;37.606;2023-06-22T10:29:03;4.90;;;4.07;;
74495;SDS011;62979;55.720;37.606;2023-06-22T10:33:57;4.82;;;4.43;;
74495;SDS011;62979;55.720;37.606;2023-06-22T10:38:52;6.28;;;3.33;;
74495;SDS011;62979;55.720;37.606;2023-06-22T10:41:20;5.03;;;3.85;;
74495;SDS011;62979;55.720;37.606;2023-06-22T10:46:14;3.65;;;3.30;;
74495;SDS011;62979;55.720;37.606;2023-06-22T10:48:41;4.80;;;4.38;;
74495;SDS011;62979;55.720;37.606;2023-06-22T10:51:08;4.20;;;3.83;;
74495;SDS011;62979;55.720;37.606;2023-06-22T10:53:36;6.70;;;4.65;;
74495;SDS011;62979;55.720;37.606;2023-06-22T10:56:03;6.53;;;4.40;;
74495;SDS011;62979;55.720;37.606;2023-06-22T10:58:30;5.18;;;3.92;;
74495;SDS011;62979;55.720;37.606;2023-06-22T11:00:57;4.65;;;4.25;;
74495;SDS011;62979;55.720;37.606;2023-06-22T11:03:25;4.55;;;4.15;;
74495;SDS011;62979;55.720;37.606;2023-06-22T11:08:18;4.85;;;4.40;;
74495;SDS011;62979;55.720;37.606;2023-06-22T11:13:13;3.70;;;3.35;;
74495;SDS011;62979;55.720;37.606;2023-06-22T11:15:40;5.53;;;4.90;;
74495;SDS011;62979;55.720;37.606;2023-06-22T11:18:07;3.90;;;3.20;;
74495;SDS011;62979;55.720;37.606;2023-06-22T11:23:03;5.40;;;4.90;;
74495;SDS011;62979;55.720;37.606;2023-06-22T11:25:31;5.07;;;4.68;;
74495;SDS011;62979;55.720;37.606;2023-06-22T11:28:01;5.65;;;4.53;;
74495;SDS011;62979;55.720;37.606;2023-06-22T11:30:28;5.32;;;3.58;;
74495;SDS011;62979;55.720;37.606;2023-06-22T11:32:56;3.85;;;3.55;;
74495;SDS011;62979;55.720;37.606;2023-06-22T11:35:23;5.80;;;3.92;;
74495;SDS011;62979;55.720;37.606;2023-06-22T11:37:50;5.30;;;4.40;;
74495;SDS011;62979;55.720;37.606;2023-06-22T11:40:17;4.75;;;4.45;;
74495;SDS011;62979;55.720;37.606;2023-06-22T11:42:45;5.20;;;3.78;;
74495;SDS011;62979;55.720;37.606;2023-06-22T11:45:13;4.90;;;4.32;;
74495;SDS011;62979;55.720;37.606;2023-06-22T11:47:40;6.32;;;4.93;;
74495;SDS011;62979;55.720;37.606;2023-06-22T11:50:07;7.20;;;4.40;;
74495;SDS011;62979;55.720;37.606;2023-06-22T11:52:35;4.95;;;4.20;;
74495;SDS011;62979;55.720;37.606;2023-06-22T11:55:02;6.13;;;4.47;;
74495;SDS011;62979;55.720;37.606;2023-06-22T11:57:32;5.30;;;4.20;;
74495;SDS011;62979;55.720;37.606;2023-06-22T12:00:01;5.03;;;4.57;;
74495;SDS011;62979;55.720;37.606;2023-06-22T12:02:32;4.82;;;4.07;;
74495;SDS011;62979;55.720;37.606;2023-06-22T12:04:59;4.55;;;4.25;;
74495;SDS011;62979;55.720;37.606;2023-06-22T12:07:27;5.57;;;4.35;;
74495;SDS011;62979;55.720;37.606;2023-06-22T12:09:53;4.72;;;4.38;;
74495;SDS011;62979;55.720;37.606;2023-06-22T12:12:20;6.72;;;4.28;;
74495;SDS011;62979;55.720;37.606;2023-06-22T12:14:47;4.57;;;4.18;;
74495;SDS011;62979;55.720;37.606;2023-06-22T12:17:14;4.90;;;4.45;;
74495;SDS011;62979;55.720;37.606;2023-06-22T12:19:42;4.55;;;4.25;;
74495;SDS011;62979;55.720;37.606;2023-06-22T12:22:09;4.93;;;4.28;;
74495;SDS011;62979;55.720;37.606;2023-06-22T12:24:36;7.18;;;4.97;;
74495;SDS011;62979;55.720;37.606;2023-06-22T12:27:03;4.57;;;4.28;;
74495;SDS011;62979;55.720;37.606;2023-06-22T12:29:31;3.55;;;3.25;;
74495;SDS011;62979;55.720;37.606;2023-06-22T12:31:57;13.77;;;5.00;;
74495;SDS011;62979;55.720;37.606;2023-06-22T12:34:24;5.35;;;3.38;;
74495;SDS011;62979;55.720;37.606;2023-06-22T12:36:52;9.02;;;4.65;;
74495;SDS011;62979;55.720;37.606;2023-06-22T12:39:20;7.53;;;3.20;;
74495;SDS011;62979;55.720;37.606;2023-06-22T12:41:47;6.07;;;4.95;;
74495;SDS011;62979;55.720;37.606;2023-06-22T12:44:14;5.95;;;3.78;;
74495;SDS011;62979;55.720;37.606;2023-06-22T12:46:40;4.60;;;4.28;;
74495;SDS011;62979;55.720;37.606;2023-06-22T12:51:39;4.72;;;4.32;;
74495;SDS011;62979;55.720;37.606;2023-06-22T12:54:08;5.97;;;4.32;;
74495;SDS011;62979;55.720;37.606;2023-06-22T12:56:36;5.85;;;4.65;;
74495;SDS011;62979;55.720;37.606;2023-06-22T12:59:04;4.88;;;4.30;;
74495;SDS011;62979;55.720;37.606;2023-06-22T13:01:31;3.78;;;3.40;;
74495;SDS011;62979;55.720;37.606;2023-06-22T13:03:58;4.63;;;4.28;;
74495;SDS011;62979;55.720;37.606;2023-06-22T13:06:25;4.82;;;4.43;;
74495;SDS011;62979;55.720;37.606;2023-06-22T13:08:52;4.55;;;3.60;;
74495;SDS011;62979;55.720;37.606;2023-06-22T13:11:20;4.50;;;3.13;;
74495;SDS011;62979;55.720;37.606;2023-06-22T13:13:47;3.63;;;2.90;;
74495;SDS011;62979;55.720;37.606;2023-06-22T13:16:14;4.95;;;3.50;;
74495;SDS011;62979;55.720;37.606;2023-06-22T13:18:41;6.45;;;4.07;;
74495;SDS011;62979;55.720;37.606;2023-06-22T13:21:08;4.45;;;4.07;;
74495;SDS011;62979;55.720;37.606;2023-06-22T13:23:35;4.80;;;4.30;;
74495;SDS011;62979;55.720;37.606;2023-06-22T13:26:02;5.18;;;3.22;;
74495;SDS011;62979;55.720;37.606;2023-06-22T13:28:30;5.40;;;4.90;;
74495;SDS011;62979;55.720;37.606;2023-06-22T13:30:57;3.83;;;3.47;;
74495;SDS011;62979;55.720;37.606;2023-06-22T13:33:24;4.15;;;3.85;;
74495;SDS011;62979;55.720;37.606;2023-06-22T13:35:51;7.95;;;4.97;;
74495;SDS011;62979;55.720;37.606;2023-06-22T13:38:18;4.57;;;3.88;;
74495;SDS011;62979;55.720;37.606;2023-06-22T13:40:45;5.18;;;4.38;;
74495;SDS011;62979;55.720;37.606;2023-06-22T13:43:13;3.78;;;3.03;;
74495;SDS011;62979;55.720;37.606;2023-06-22T13:45:42;5.57;;;3.80;;
74495;SDS011;62979;55.720;37.606;2023-06-22T13:48:09;5.85;;;5.22;;
74495;SDS011;62979;55.720;37.606;2023-06-22T13:50:36;5.60;;;4.22;;
74495;SDS011;62979;55.720;37.606;2023-06-22T13:53:03;5.53;;;5.13;;
74495;SDS011;62979;55.720;37.606;2023-06-22T13:55:30;4.88;;;4.47;;
74495;SDS011;62979;55.720;37.606;2023-06-22T13:57:56;5.57;;;5.07;;
74495;SDS011;62979;55.720;37.606;2023-06-22T14:00:23;4.95;;;4.38;;
74495;SDS011;62979;55.720;37.606;2023-06-22T14:02:52;4.93;;;4.53;;
74495;SDS011;62979;55.720;37.606;2023-06-22T14:05:18;4.85;;;4.30;;
74495;SDS011;62979;55.720;37.606;2023-06-22T14:07:45;4.65;;;4.22;;
74495;SDS011;62979;55.720;37.606;2023-06-22T14:10:12;5.45;;;4.53;;
74495;SDS011;62979;55.720;37.606;2023-06-22T14:12:39;5.53;;;4.35;;
74495;SDS011;62979;55.720;37.606;2023-06-22T14:15:06;4.40;;;4.00;;
74495;SDS011;62979;55.720;37.606;2023-06-22T14:17:34;5.22;;;4.65;;
74495;SDS011;62979;55.720;37.606;2023-06-22T14:20:02;5.90;;;3.67;;
74495;SDS011;62979;55.720;37.606;2023-06-22T14:22:33;5.85;;;3.58;;
74495;SDS011;62979;55.720;37.606;2023-06-22T14:25:01;4.53;;;4.13;;
74495;SDS011;62979;55.720;37.606;2023-06-22T14:27:29;6.20;;;4.18;;
74495;SDS011;62979;55.720;37.606;2023-06-22T14:29:56;4.75;;;4.10;;
74495;SDS011;62979;55.720;37.606;2023-06-22T14:32:23;5.55;;;3.90;;
74495;SDS011;62979;55.720;37.606;2023-06-22T14:34:50;3.83;;;2.97;;
74495;SDS011;62979;55.720;37.606;2023-06-22T14:37:18;6.78;;;3.65;;
74495;SDS011;62979;55.720;37.606;2023-06-22T14:39:45;4.07;;;3.33;;
74495;SDS011;62979;55.720;37.606;2023-06-22T14:42:12;5.28;;;4.78;;
74495;SDS011;62979;55.720;37.606;2023-06-22T14:47:06;4.65;;;4.30;;
74495;SDS011;62979;55.720;37.606;2023-06-22T14:49:33;4.70;;;4.38;;
74495;SDS011;62979;55.720;37.606;2023-06-22T14:52:02;4.78;;;4.20;;
74495;SDS011;62979;55.720;37.606;2023-06-22T14:54:30;5.43;;;4.05;;
74495;SDS011;62979;55.720;37.606;2023-06-22T14:56:57;7.90;;;5.20;;
74495;SDS011;62979;55.720;37.606;2023-06-22T15:01:51;6.13;;;3.90;;
74495;SDS011;62979;55.720;37.606;2023-06-22T15:06:44;5.28;;;4.30;;
74495;SDS011;62979;55.720;37.606;2023-06-22T15:11:39;5.28;;;4.88;;
74495;SDS011;62979;55.720;37.606;2023-06-22T15:14:06;4.88;;;3.83;;
74495;SDS011;62979;55.720;37.606;2023-06-22T15:16:33;6.40;;;4.93;;
74495;SDS011;62979;55.720;37.606;2023-06-22T15:19:00;4.80;;;4.40;;
74495;SDS011;62979;55.720;37.606;2023-06-22T15:23:54;5.78;;;4.20;;
74495;SDS011;62979;55.720;37.606;2023-06-22T15:26:20;4.35;;;3.95;;
74495;SDS011;62979;55.720;37.606;2023-06-22T15:31:15;4.57;;;3.95;;